Time;durP1;ratioP1;P1;durP2;ratioP2;P2;SDS_P1;SDS_P2;PMS_P1;PMS_P2;Temp;Humidity;BMP_temperature;BMP_pressure;BME280_temperature;BME280_humidity;BME280_pressure;Samples;Min_cycle;Max_cycle;Signal;HPM_P1;HPM_P2
2023/06/28 00:01:02;;;;;;;;;;;;;;;23.21;42.25;101672.63;4132787;28;20016;-58
2023/06/28 00:03:10;;;;;;;;;;;;;;;23.20;42.30;101674.47;4131707;28;20372;-58
2023/06/28 00:05:12;;;;;;;;;;;;;;;23.21;42.16;101677.97;4132516;28;19969;-56
2023/06/28 00:07:15;;;;;;;;;;;;;;;23.19;42.43;101666.53;4131750;28;20291;-57
2023/06/28 00:09:17;;;;;;;;;;;;;;;23.19;42.19;101669.22;4132595;28;20395;-58
2023/06/28 00:11:18;;;;;;;;;;;;;;;23.19;42.43;101670.06;4132641;28;19925;-58
2023/06/28 00:13:19;;;;;;;;;;;;;;;23.18;42.30;101675.53;4132714;28;19936;-58
2023/06/28 00:15:21;;;;;;;;;;;;;;;23.18;42.46;101673.69;4132494;28;19932;-58
2023/06/28 00:17:27;;;;;;;;;;;;;;;23.17;42.28;101669.31;4131389;28;19933;-57
2023/06/28 00:19:29;;;;;;;;;;;;;;;23.17;42.46;101673.81;4132593;28;19933;-57
2023/06/28 00:21:30;;;;;;;;;;;;;;;23.16;42.64;101669.41;4132097;28;20015;-57
2023/06/28 00:23:32;;;;;;;;;;;;;;;23.16;42.40;101666.72;4132548;28;20004;-57
2023/06/28 00:25:34;;;;;;;;;;;;;;;23.15;42.28;101668.56;4132519;28;19984;-58
2023/06/28 00:27:36;;;;;;;;;;;;;;;23.14;42.52;101666.84;4131182;28;19976;-58
2023/06/28 00:29:38;;;;;;;;;;;;;;;23.14;42.58;101665.00;4132269;28;19926;-58
2023/06/28 00:31:39;;;;;;;;;;;;;;;23.12;42.28;101660.72;4132231;28;20017;-57
2023/06/28 00:33:41;;;;;;;;;;;;;;;23.13;42.57;101663.28;4132177;28;19926;-57
2023/06/28 00:35:43;;;;;;;;;;;;;;;23.12;42.29;101663.41;4132077;28;19960;-57
2023/06/28 00:37:44;;;;;;;;;;;;;;;23.12;42.41;101661.59;4131268;28;19926;-57
2023/06/28 00:39:46;;;;;;;;;;;;;;;23.12;42.45;101661.59;4132126;28;20315;-58
2023/06/28 00:41:48;;;;;;;;;;;;;;;23.12;42.67;101660.72;4132244;28;19957;-57
2023/06/28 00:43:49;;;;;;;;;;;;;;;23.10;42.60;101658.16;4132184;28;20302;-58
2023/06/28 00:45:50;;;;;;;;;;;;;;;23.11;42.58;101664.38;4131810;28;20452;-57
2023/06/28 00:47:52;;;;;;;;;;;;;;;23.09;42.68;101658.28;4130853;28;19926;-58
2023/06/28 00:49:55;;;;;;;;;;;;;;;23.09;42.57;101660.97;4130282;28;19932;-58
2023/06/28 00:51:57;;;;;;;;;;;;;;;23.09;42.59;101658.28;4131952;28;19930;-57
2023/06/28 00:53:59;;;;;;;;;;;;;;;23.07;42.66;101653.00;4131954;28;19926;-58
2023/06/28 00:56:00;;;;;;;;;;;;;;;23.07;42.63;101653.00;4131959;28;20388;-58
2023/06/28 00:58:02;;;;;;;;;;;;;;;23.07;42.50;101655.69;4130898;28;19961;-58
2023/06/28 01:00:08;;;;;;;;;;;;;;;23.06;42.32;101651.31;4132026;28;20383;-58
2023/06/28 01:02:10;;;;;;;;;;;;;;;23.06;42.26;101659.34;4131739;28;19972;-58
2023/06/28 01:04:13;;;;;;;;;;;;;;;23.06;42.56;101650.44;4131333;28;19968;-58
2023/06/28 01:06:15;;;;;;;;;;;;;;;23.05;42.48;101654.97;4131639;28;20002;-58
2023/06/28 01:08:17;;;;;;;;;;;;;;;23.05;42.51;101646.03;4130803;28;20020;-58
2023/06/28 01:10:19;;;;;;;;;;;;;;;23.05;42.48;101656.75;4131752;28;19926;-58
2023/06/28 01:12:21;;;;;;;;;;;;;;;23.03;42.65;101648.84;4131832;28;19926;-58
2023/06/28 01:14:23;;;;;;;;;;;;;;;23.04;42.52;101649.69;4131773;28;19960;-57
2023/06/28 01:16:25;;;;;;;;;;;;;;;23.03;42.42;101651.53;4131461;28;19980;-57
2023/06/28 01:18:28;;;;;;;;;;;;;;;23.01;42.70;101650.78;4130971;28;19925;-58
2023/06/28 01:20:30;;;;;;;;;;;;;;;23.00;42.68;101651.72;4130884;28;20391;-58
2023/06/28 01:22:32;;;;;;;;;;;;;;;23.00;42.76;101649.06;4131593;28;20388;-58
2023/06/28 01:24:35;;;;;;;;;;;;;;;23.00;42.53;101649.06;4131773;28;20355;-59
2023/06/28 01:26:37;;;;;;;;;;;;;;;23.00;42.60;101648.22;4130822;28;20375;-58
2023/06/28 01:28:39;;;;;;;;;;;;;;;23.00;42.60;101649.06;4131280;28;19926;-58
2023/06/28 01:30:41;;;;;;;;;;;;;;;23.00;42.42;101649.06;4130108;28;20009;-58
2023/06/28 01:32:43;;;;;;;;;;;;;;;22.99;42.71;101650.06;4131173;28;19929;-58
2023/06/28 01:34:45;;;;;;;;;;;;;;;22.98;42.44;101645.66;4131761;28;19933;-57
2023/06/28 01:36:47;;;;;;;;;;;;;;;22.98;42.47;101649.19;4130531;28;19930;-57
2023/06/28 01:38:50;;;;;;;;;;;;;;;22.97;42.71;101642.09;4131338;28;19957;-58
2023/06/28 01:40:53;;;;;;;;;;;;;;;22.97;42.81;101644.78;4131472;28;19927;-57
2023/06/28 01:42:55;;;;;;;;;;;;;;;22.97;42.75;101643.94;4131302;28;19936;-58
2023/06/28 01:44:56;;;;;;;;;;;;;;;22.96;42.86;101635.00;4131184;28;19932;-58
2023/06/28 01:46:58;;;;;;;;;;;;;;;22.97;42.84;101633.19;4129898;28;19929;-59
2023/06/28 01:49:00;;;;;;;;;;;;;;;22.96;42.86;101634.16;4131103;28;19965;-57
2023/06/28 01:51:03;;;;;;;;;;;;;;;22.95;42.70;101637.81;4131493;28;20025;-58
2023/06/28 01:53:06;;;;;;;;;;;;;;;22.94;42.69;101638.78;4131312;28;19976;-57
2023/06/28 01:55:10;;;;;;;;;;;;;;;22.94;42.63;101636.97;4131508;28;19969;-58
2023/06/28 01:57:12;;;;;;;;;;;;;;;22.93;42.86;101629.00;4130125;28;19972;-58
2023/06/28 01:59:14;;;;;;;;;;;;;;;22.93;42.71;101637.94;4131397;28;19930;-58
2023/06/28 02:01:15;;;;;;;;;;;;;;;22.93;43.02;101639.75;4130844;28;19926;-57
2023/06/28 02:03:17;;;;;;;;;;;;;;;22.92;42.90;101632.69;4131408;28;19936;-57
2023/06/28 02:05:19;;;;;;;;;;;;;;;22.91;42.94;101634.50;4131177;28;20284;-57
2023/06/28 02:07:21;;;;;;;;;;;;;;;22.91;42.93;101639.88;4130084;28;19925;-57
2023/06/28 02:09:22;;;;;;;;;;;;;;;22.91;42.62;101636.34;4131092;28;19930;-57
2023/06/28 02:11:24;;;;;;;;;;;;;;;22.91;42.94;101639.03;4130045;28;19933;-58
2023/06/28 02:13:26;;;;;;;;;;;;;;;22.90;42.97;101634.63;4131199;28;20311;-58
2023/06/28 02:15:27;;;;;;;;;;;;;;;22.89;42.91;101635.59;4131236;28;19933;-58
2023/06/28 02:17:30;;;;;;;;;;;;;;;22.89;43.00;101641.81;4129796;28;19937;-58
2023/06/28 02:19:38;;;;;;;;;;;;;;;22.88;42.98;101637.44;4131006;28;20025;-58
2023/06/28 02:21:43;;;;;;;;;;;;;;;22.88;43.10;101633.88;4130999;28;20021;-58
2023/06/28 02:23:45;;;;;;;;;;;;;;;22.87;42.84;101635.72;4130990;28;19926;-58
2023/06/28 02:25:47;;;;;;;;;;;;;;;22.86;42.96;101623.25;4130974;28;19939;-58
2023/06/28 02:27:48;;;;;;;;;;;;;;;22.86;43.05;101628.63;4129985;28;19977;-57
2023/06/28 02:29:50;;;;;;;;;;;;;;;22.87;42.90;101621.41;4130966;28;19972;-57
2023/06/28 02:31:52;;;;;;;;;;;;;;;22.86;42.74;101625.94;4130709;28;19926;-58
2023/06/28 02:33:53;;;;;;;;;;;;;;;22.86;42.86;101625.09;4131188;28;19952;-58
2023/06/28 02:35:55;;;;;;;;;;;;;;;22.86;42.71;101627.78;4130935;28;19933;-57
2023/06/28 02:37:56;;;;;;;;;;;;;;;22.85;42.71;101624.22;4130008;28;20318;-58
2023/06/28 02:39:58;;;;;;;;;;;;;;;22.85;42.74;101620.69;4131373;28;20435;-58
2023/06/28 02:41:59;;;;;;;;;;;;;;;22.84;43.07;101625.19;4131144;28;20429;-58
2023/06/28 02:44:01;;;;;;;;;;;;;;;22.84;43.04;101621.66;4133595;28;19976;-57
2023/06/28 02:46:02;;;;;;;;;;;;;;;22.83;42.99;101626.16;4133336;28;20284;-57
2023/06/28 02:48:04;;;;;;;;;;;;;;;22.82;43.10;101621.78;4132911;28;19929;-58
2023/06/28 02:50:06;;;;;;;;;;;;;;;22.81;43.05;101625.44;4133730;28;19929;-58
2023/06/28 02:52:08;;;;;;;;;;;;;;;22.80;43.09;101616.50;4133736;28;19941;-58
2023/06/28 02:54:09;;;;;;;;;;;;;;;22.80;43.11;101616.50;4133675;28;20016;-57
2023/06/28 02:56:13;;;;;;;;;;;;;;;22.80;42.78;101621.03;4133821;28;19937;-58
2023/06/28 02:58:15;;;;;;;;;;;;;;;22.79;43.13;101614.78;4132726;28;20355;-58
2023/06/28 03:00:16;;;;;;;;;;;;;;;22.80;43.05;101615.66;4133596;28;20004;-58
2023/06/28 03:02:18;;;;;;;;;;;;;;;22.80;42.94;101615.66;4133772;28;19973;-58
2023/06/28 03:04:19;;;;;;;;;;;;;;;22.78;43.02;101618.47;4133841;28;19932;-58
2023/06/28 03:06:21;;;;;;;;;;;;;;;22.78;42.84;101617.59;4133367;28;19932;-58
2023/06/28 03:08:23;;;;;;;;;;;;;;;22.78;42.75;101618.47;4132722;28;20379;-58
2023/06/28 03:10:24;;;;;;;;;;;;;;;22.78;42.77;101622.97;4133391;28;19925;-58
2023/06/28 03:12:26;;;;;;;;;;;;;;;22.69;42.64;101605.72;4133639;28;19951;-58
2023/06/28 03:14:27;;;;;;;;;;;;;;;22.75;42.79;101613.31;4133200;28;20086;-58
2023/06/28 03:16:29;;;;;;;;;;;;;;;22.76;42.95;101612.34;4133423;28;19961;-57
2023/06/28 03:18:30;;;;;;;;;;;;;;;22.75;42.83;101613.31;4132453;28;20315;-58
2023/06/28 03:20:32;;;;;;;;;;;;;;;22.75;43.03;101613.31;4133549;28;19933;-58
2023/06/28 03:22:33;;;;;;;;;;;;;;;22.75;43.11;101613.31;4133166;28;19926;-58
2023/06/28 03:24:38;;;;;;;;;;;;;;;22.75;43.11;101613.31;4133380;28;20117;-58
2023/06/28 03:26:40;;;;;;;;;;;;;;;22.75;42.88;101613.31;4133306;28;19930;-58
2023/06/28 03:28:41;;;;;;;;;;;;;;;22.75;42.96;101617.84;4131800;28;19926;-58
2023/06/28 03:30:43;;;;;;;;;;;;;;;22.74;43.03;101616.97;4133194;28;20033;-58
2023/06/28 03:32:45;;;;;;;;;;;;;;;22.73;43.13;101619.75;4133383;28;19933;-57
2023/06/28 03:34:46;;;;;;;;;;;;;;;22.72;43.18;101621.56;4133159;28;19929;-58
2023/06/28 03:36:49;;;;;;;;;;;;;;;22.73;42.80;101617.09;4133373;28;20311;-57
2023/06/28 03:39:05;;;;;;;;;;;;;;;22.72;42.91;101618.88;4133155;28;19929;-58
2023/06/28 03:41:07;;;;;;;;;;;;;;;22.72;43.01;101615.38;4133028;28;19926;-57
2023/06/28 03:43:08;;;;;;;;;;;;;;;22.71;42.99;101622.56;4132790;28;19980;-57
2023/06/28 03:45:10;;;;;;;;;;;;;;;22.72;43.05;101612.69;4131863;28;19932;-58
2023/06/28 03:47:12;;;;;;;;;;;;;;;22.71;42.80;101614.53;4130691;28;20335;-57
2023/06/28 03:49:13;;;;;;;;;;;;;;;22.70;43.12;101610.13;4132685;28;19961;-57
2023/06/28 03:51:15;;;;;;;;;;;;;;;22.70;42.94;101612.81;4133068;28;19956;-58
2023/06/28 03:53:16;;;;;;;;;;;;;;;22.70;43.01;101603.88;4132517;28;19926;-57
2023/06/28 03:55:18;;;;;;;;;;;;;;;22.69;43.16;101613.75;4132877;28;19930;-57
2023/06/28 03:57:22;;;;;;;;;;;;;;;22.69;43.11;101615.59;4131751;28;20350;-57
2023/06/28 03:59:24;;;;;;;;;;;;;;;22.69;43.11;101613.75;4132899;28;19926;-57
2023/06/28 04:01:25;;;;;;;;;;;;;;;22.68;42.84;101612.06;4132759;28;19926;-57
2023/06/28 04:03:27;;;;;;;;;;;;;;;22.68;43.09;101616.56;4132837;28;20058;-58
2023/06/28 04:05:29;;;;;;;;;;;;;;;22.67;43.20;101614.84;4132904;28;19940;-57
2023/06/28 04:07:30;;;;;;;;;;;;;;;22.68;43.18;101611.22;4131704;28;20442;-57
2023/06/28 04:09:32;;;;;;;;;;;;;;;22.67;42.80;101612.16;4132548;28;19926;-57
2023/06/28 04:11:34;;;;;;;;;;;;;;;22.66;43.14;101608.63;4132612;28;19933;-55
2023/06/28 04:13:35;;;;;;;;;;;;;;;22.65;42.96;101609.59;4132365;28;19964;-56
2023/06/28 04:15:37;;;;;;;;;;;;;;;22.66;42.94;101613.97;4132545;28;19948;-56
2023/06/28 04:17:38;;;;;;;;;;;;;;;22.66;43.06;101608.63;4131736;28;20012;-57
2023/06/28 04:19:40;;;;;;;;;;;;;;;22.65;43.16;101610.44;4132541;28;19996;-57
2023/06/28 04:21:42;;;;;;;;;;;;;;;22.65;42.97;101612.28;4131440;28;19926;-57
2023/06/28 04:23:43;;;;;;;;;;;;;;;22.64;42.97;101614.09;4132598;28;19929;-57
2023/06/28 04:25:46;;;;;;;;;;;;;;;22.66;43.04;101611.28;4132390;28;20025;-57
2023/06/28 04:27:47;;;;;;;;;;;;;;;22.64;43.03;101608.72;4131111;28;19926;-58
2023/06/28 04:29:49;;;;;;;;;;;;;;;22.65;43.03;101615.81;4132568;28;19930;-57
2023/06/28 04:31:50;;;;;;;;;;;;;;;22.64;43.05;101611.41;4132489;28;19949;-57
2023/06/28 04:33:55;;;;;;;;;;;;;;;22.64;42.96;101606.06;4131129;28;19957;-57
2023/06/28 04:35:57;;;;;;;;;;;;;;;22.64;43.23;101610.56;4132278;28;19933;-56
2023/06/28 04:37:59;;;;;;;;;;;;;;;22.65;42.90;101614.97;4130035;28;20020;-58
2023/06/28 04:40:00;;;;;;;;;;;;;;;22.64;43.08;101608.72;4132605;28;20358;-56
2023/06/28 04:42:03;;;;;;;;;;;;;;;22.64;42.86;101610.56;4131835;28;19925;-55
2023/06/28 04:44:09;;;;;;;;;;;;;;;22.64;42.96;101613.25;4132168;28;20092;-60
2023/06/28 04:46:11;;;;;;;;;;;;;;;22.63;43.14;101606.16;4132030;28;20431;-57
2023/06/28 04:48:14;;;;;;;;;;;;;;;22.63;42.98;101604.34;4130847;28;20383;-57
2023/06/28 04:50:15;;;;;;;;;;;;;;;22.63;42.83;101609.69;4131999;28;19969;-57
2023/06/28 04:52:18;;;;;;;;;;;;;;;22.63;42.82;101611.53;4131824;28;20021;-57
2023/06/28 04:54:20;;;;;;;;;;;;;;;22.63;43.16;101606.16;4131050;28;19930;-57
2023/06/28 04:56:22;;;;;;;;;;;;;;;22.63;43.07;101611.53;4131415;28;19933;-57
2023/06/28 04:58:25;;;;;;;;;;;;;;;22.63;43.07;101606.16;4131054;28;19933;-57
2023/06/28 05:00:26;;;;;;;;;;;;;;;22.63;42.69;101608.84;4131970;28;20009;-57
2023/06/28 05:02:28;;;;;;;;;;;;;;;22.62;42.85;101605.28;4131805;28;19961;-57
2023/06/28 05:04:32;;;;;;;;;;;;;;;22.62;43.06;101604.44;4131719;28;19968;-57
2023/06/28 05:06:35;;;;;;;;;;;;;;;22.63;43.13;101606.16;4131142;28;19949;-57
2023/06/28 05:08:37;;;;;;;;;;;;;;;22.62;42.70;101610.66;4130842;28;19926;-57
2023/06/28 05:10:38;;;;;;;;;;;;;;;22.62;43.02;101609.81;4131270;28;19925;-57
2023/06/28 05:12:40;;;;;;;;;;;;;;;22.62;42.80;101607.13;4131894;28;20334;-57
2023/06/28 05:14:41;;;;;;;;;;;;;;;22.61;42.72;101608.09;4130555;28;19988;-57
2023/06/28 05:16:43;;;;;;;;;;;;;;;22.62;42.96;101612.50;4131700;28;20388;-58
2023/06/28 05:18:45;;;;;;;;;;;;;;;22.61;43.14;101603.63;4130503;28;19947;-58
2023/06/28 05:20:47;;;;;;;;;;;;;;;22.62;42.60;101607.13;4131709;28;19957;-57
2023/06/28 05:22:49;;;;;;;;;;;;;;;22.61;42.95;101597.38;4131570;28;19938;-58
2023/06/28 05:24:50;;;;;;;;;;;;;;;22.60;43.02;101599.22;4131355;28;20323;-57
2023/06/28 05:26:52;;;;;;;;;;;;;;;22.60;42.84;101598.34;4131272;28;19925;-56
2023/06/28 05:28:53;;;;;;;;;;;;;;;22.61;42.99;101600.06;4130402;28;20523;-58
2023/06/28 05:30:55;;;;;;;;;;;;;;;22.59;42.88;101592.13;4131764;28;19933;-57
2023/06/28 05:32:58;;;;;;;;;;;;;;;22.60;42.74;101593.84;4131540;28;19929;-57
2023/06/28 05:35:02;;;;;;;;;;;;;;;22.60;42.88;101593.84;4131393;28;19930;-57
2023/06/28 05:37:03;;;;;;;;;;;;;;;22.60;42.74;101593.84;4131382;28;19932;-57
2023/06/28 05:39:05;;;;;;;;;;;;;;;22.59;42.63;101594.81;4130294;28;19948;-57
2023/06/28 05:41:16;;;;;;;;;;;;;;;22.59;43.04;101600.19;4131589;28;19972;-57
2023/06/28 05:43:21;;;;;;;;;;;;;;;22.59;43.01;101596.63;4131421;28;19996;-57
2023/06/28 05:45:23;;;;;;;;;;;;;;;22.58;42.93;101590.41;4131079;28;19930;-57
2023/06/28 05:47:24;;;;;;;;;;;;;;;22.59;42.79;101588.56;4130530;28;19930;-58
2023/06/28 05:49:26;;;;;;;;;;;;;;;22.58;42.94;101593.09;4129806;28;19930;-57
2023/06/28 05:51:27;;;;;;;;;;;;;;;22.59;42.65;101597.50;4131292;28;19926;-57
2023/06/28 05:53:29;;;;;;;;;;;;;;;22.59;42.75;101589.44;4130897;28;19926;-57
2023/06/28 05:55:30;;;;;;;;;;;;;;;22.59;42.90;101591.25;4130046;28;19993;-57
2023/06/28 05:57:32;;;;;;;;;;;;;;;22.58;42.81;101595.78;4130556;28;20013;-58
2023/06/28 05:59:33;;;;;;;;;;;;;;;22.58;43.06;101595.78;4129826;28;19926;-57
2023/06/28 06:01:35;;;;;;;;;;;;;;;22.59;42.92;101600.19;4131269;28;20386;-57
2023/06/28 06:03:36;;;;;;;;;;;;;;;22.59;42.98;101596.63;4131289;28;19925;-57
2023/06/28 06:05:38;;;;;;;;;;;;;;;22.59;42.81;101593.94;4131176;28;19964;-57
2023/06/28 06:07:40;;;;;;;;;;;;;;;22.59;42.63;101599.31;4130259;28;19933;-57
2023/06/28 06:09:41;;;;;;;;;;;;;;;22.59;42.90;101596.63;4131189;28;19926;-57
2023/06/28 06:11:43;;;;;;;;;;;;;;;22.58;42.66;101601.13;4131029;28;19926;-57
2023/06/28 06:13:44;;;;;;;;;;;;;;;22.58;42.97;101605.66;4131338;28;19948;-57
2023/06/28 06:15:46;;;;;;;;;;;;;;;22.58;42.69;101597.63;4131257;28;20020;-57
2023/06/28 06:17:48;;;;;;;;;;;;;;;22.58;43.04;101600.28;4132907;28;19926;-57
2023/06/28 06:19:50;;;;;;;;;;;;;;;22.57;42.95;101594.06;4134211;28;19926;-57
2023/06/28 06:21:51;;;;;;;;;;;;;;;22.57;42.92;101596.75;4134286;28;19973;-57
2023/06/28 06:23:53;;;;;;;;;;;;;;;22.57;42.75;101603.94;4133969;28;20276;-57
2023/06/28 06:25:54;;;;;;;;;;;;;;;22.58;42.86;101602.97;4134312;28;19926;-57
2023/06/28 06:27:56;;;;;;;;;;;;;;;22.58;42.93;101597.63;4132925;28;19936;-57
2023/06/28 06:29:58;;;;;;;;;;;;;;;22.58;43.00;101600.28;4134084;28;19933;-57
2023/06/28 06:31:59;;;;;;;;;;;;;;;22.58;43.04;101597.63;4134233;28;19925;-57
2023/06/28 06:34:01;;;;;;;;;;;;;;;22.58;42.74;101605.66;4134058;28;20020;-57
2023/06/28 06:36:03;;;;;;;;;;;;;;;22.58;42.94;101597.63;4134254;28;19926;-57
2023/06/28 06:38:04;;;;;;;;;;;;;;;22.58;42.94;101600.28;4132849;28;19980;-57
2023/06/28 06:40:06;;;;;;;;;;;;;;;22.58;43.06;101601.13;4134031;28;19977;-57
2023/06/28 06:42:08;;;;;;;;;;;;;;;22.58;42.61;101602.97;4133942;28;19925;-57
2023/06/28 06:44:09;;;;;;;;;;;;;;;22.58;42.93;101605.66;4133957;28;20012;-57
2023/06/28 06:46:11;;;;;;;;;;;;;;;22.59;42.72;101604.66;4133724;28;20404;-57
2023/06/28 06:48:12;;;;;;;;;;;;;;;22.60;42.52;101601.91;4132867;28;19980;-56
2023/06/28 06:50:14;;;;;;;;;;;;;;;22.61;42.60;101597.38;4133793;28;20306;-57
2023/06/28 06:52:16;;;;;;;;;;;;;;;22.63;42.88;101606.16;4133385;28;19933;-57
2023/06/28 06:54:17;;;;;;;;;;;;;;;22.64;42.73;101607.88;4132374;28;19949;-57
2023/06/28 06:56:20;;;;;;;;;;;;;;;22.65;42.44;101609.59;4133980;28;19976;-57
2023/06/28 06:58:23;;;;;;;;;;;;;;;22.65;42.76;101604.25;4132829;28;19926;-57
2023/06/28 07:00:24;;;;;;;;;;;;;;;22.67;42.77;101607.66;4133615;28;19926;-57
2023/06/28 07:02:26;;;;;;;;;;;;;;;22.68;42.62;101609.38;4133681;28;19925;-57
2023/06/28 07:04:28;;;;;;;;;;;;;;;22.68;42.71;101609.38;4133759;28;19933;-57
2023/06/28 07:06:32;;;;;;;;;;;;;;;22.70;42.98;101614.59;4133009;28;20016;-57
2023/06/28 07:08:37;;;;;;;;;;;;;;;22.70;42.60;101609.25;4132250;28;19926;-57
2023/06/28 07:10:38;;;;;;;;;;;;;;;22.70;42.98;101610.13;4133646;28;20020;-56
2023/06/28 07:12:40;;;;;;;;;;;;;;;22.73;43.23;101615.25;4133592;28;19990;-57
2023/06/28 07:14:41;;;;;;;;;;;;;;;22.75;43.21;101615.16;4133637;28;19956;-56
2023/06/28 07:16:44;;;;;;;;;;;;;;;22.76;43.38;101612.34;4133386;28;19934;-56
2023/06/28 07:18:46;;;;;;;;;;;;;;;22.77;43.14;101611.38;4132466;28;19925;-56
2023/06/28 07:20:48;;;;;;;;;;;;;;;22.78;42.87;101612.22;4133010;28;19969;-55
2023/06/28 07:22:50;;;;;;;;;;;;;;;22.81;42.93;101614.69;4133297;28;20024;-56
2023/06/28 07:24:51;;;;;;;;;;;;;;;22.82;43.12;101613.75;4133367;28;19937;-56
2023/06/28 07:26:53;;;;;;;;;;;;;;;22.84;43.26;101608.25;4133320;28;19926;-57
2023/06/28 07:28:54;;;;;;;;;;;;;;;22.86;42.78;101614.38;4131487;28;19932;-56
2023/06/28 07:30:59;;;;;;;;;;;;;;;22.87;42.91;101616.06;4133304;28;19933;-56
2023/06/28 07:33:01;;;;;;;;;;;;;;;22.88;42.64;101615.97;4132225;28;20391;-56
2023/06/28 07:35:06;;;;;;;;;;;;;;;22.89;42.72;101611.44;4132992;28;19926;-57
2023/06/28 07:37:08;;;;;;;;;;;;;;;22.90;42.53;101619.38;4133377;28;20040;-55
2023/06/28 07:39:09;;;;;;;;;;;;;;;22.91;42.58;101617.56;4132004;28;19981;-55
2023/06/28 07:41:11;;;;;;;;;;;;;;;22.92;42.86;101619.28;4133368;28;20004;-53
2023/06/28 07:43:13;;;;;;;;;;;;;;;22.92;42.97;101617.44;4133278;28;19926;-55
2023/06/28 07:45:14;;;;;;;;;;;;;;;22.91;42.79;101621.09;4133234;28;19932;-54
2023/06/28 07:47:16;;;;;;;;;;;;;;;22.93;43.00;101607.56;4132836;28;20319;-53
2023/06/28 07:49:17;;;;;;;;;;;;;;;22.93;43.10;101616.47;4131776;28;19926;-56
2023/06/28 07:51:19;;;;;;;;;;;;;;;22.94;43.00;101607.47;4133057;28;20340;-56
2023/06/28 07:53:20;;;;;;;;;;;;;;;22.95;42.76;101603.81;4132969;28;19936;-56
2023/06/28 07:55:22;;;;;;;;;;;;;;;22.95;42.74;101603.81;4132984;28;20413;-57
2023/06/28 07:57:24;;;;;;;;;;;;;;;22.96;42.73;101597.44;4132790;28;19929;-56
2023/06/28 07:59:25;;;;;;;;;;;;;;;22.97;42.73;101599.16;4130658;28;19933;-56
2023/06/28 08:01:27;;;;;;;;;;;;;;;22.98;42.97;101605.41;4132745;28;19953;-56
2023/06/28 08:03:29;;;;;;;;;;;;;;;22.98;42.91;101597.34;4132683;28;19926;-57
2023/06/28 08:05:30;;;;;;;;;;;;;;;22.98;42.79;101592.00;4132278;28;19926;-56
2023/06/28 08:07:32;;;;;;;;;;;;;;;22.98;42.93;101589.31;4132871;28;19929;-56
2023/06/28 08:09:34;;;;;;;;;;;;;;;22.98;42.77;101598.19;4131856;28;19964;-56
2023/06/28 08:11:35;;;;;;;;;;;;;;;23.00;43.01;101591.88;4132598;28;19929;-56
2023/06/28 08:13:37;;;;;;;;;;;;;;;23.01;42.99;101604.31;4132517;28;20296;-57
2023/06/28 08:15:39;;;;;;;;;;;;;;;22.90;42.76;101584.50;4132623;28;20006;-57
2023/06/28 08:17:41;;;;;;;;;;;;;;;23.00;42.90;101592.72;4132388;28;19965;-56
2023/06/28 08:19:42;;;;;;;;;;;;;;;23.00;42.80;101599.91;4131230;28;19930;-56
2023/06/28 08:21:44;;;;;;;;;;;;;;;23.00;42.83;101598.09;4132603;28;19926;-56
2023/06/28 08:23:46;;;;;;;;;;;;;;;23.01;42.85;101597.13;4132474;28;19980;-56
2023/06/28 08:25:47;;;;;;;;;;;;;;;23.00;42.89;101592.72;4132608;28;19933;-57
2023/06/28 08:27:49;;;;;;;;;;;;;;;23.01;42.85;101598.97;4132176;28;19941;-58
2023/06/28 08:29:51;;;;;;;;;;;;;;;23.02;42.84;101600.66;4131365;28;19925;-56
2023/06/28 08:31:52;;;;;;;;;;;;;;;23.02;42.69;101600.66;4132177;28;19930;-56
2023/06/28 08:33:54;;;;;;;;;;;;;;;23.03;42.87;101597.03;4131831;28;19972;-56
2023/06/28 08:35:58;;;;;;;;;;;;;;;23.02;42.90;101585.41;4132318;28;19980;-56
2023/06/28 08:37:59;;;;;;;;;;;;;;;23.02;43.08;101585.41;4131488;28;20376;-56
2023/06/28 08:40:01;;;;;;;;;;;;;;;23.03;42.99;101572.88;4131203;28;19968;-56
2023/06/28 08:42:03;;;;;;;;;;;;;;;23.03;42.79;101572.88;4131988;28;19959;-56
2023/06/28 08:44:08;;;;;;;;;;;;;;;23.02;42.87;101588.09;4132281;28;20395;-56
2023/06/28 08:46:10;;;;;;;;;;;;;;;23.03;42.85;101581.78;4130801;28;19933;-57
2023/06/28 08:48:13;;;;;;;;;;;;;;;23.03;43.20;101573.72;4130549;28;19933;-56
2023/06/28 08:50:21;;;;;;;;;;;;;;;22.96;42.81;101564.41;4132044;28;20307;-57
2023/06/28 08:52:23;;;;;;;;;;;;;;;23.05;42.90;101581.66;4132245;28;19980;-57
2023/06/28 08:54:28;;;;;;;;;;;;;;;23.05;42.87;101582.53;4132061;28;19926;-57
2023/06/28 08:56:29;;;;;;;;;;;;;;;23.06;43.13;101586.91;4132025;28;19961;-57
2023/06/28 08:58:31;;;;;;;;;;;;;;;23.07;42.81;101583.25;4130982;28;19926;-57
2023/06/28 09:00:34;;;;;;;;;;;;;;;23.08;42.80;101581.44;4131731;28;19932;-57
2023/06/28 09:02:36;;;;;;;;;;;;;;;23.07;43.19;101588.59;4131618;28;19964;-57
2023/06/28 09:04:38;;;;;;;;;;;;;;;23.08;42.78;101578.75;4131896;28;20306;-57
2023/06/28 09:06:40;;;;;;;;;;;;;;;23.11;42.67;101587.41;4131769;28;20060;-56
2023/06/28 09:08:42;;;;;;;;;;;;;;;23.13;42.94;101587.28;4130732;28;19929;-53
2023/06/28 09:10:45;;;;;;;;;;;;;;;23.13;42.76;101584.63;4131535;28;20372;-56
2023/06/28 09:12:47;;;;;;;;;;;;;;;23.14;42.85;101581.81;4131922;28;20416;-56
2023/06/28 09:14:49;;;;;;;;;;;;;;;23.14;42.83;101579.13;4131648;28;19926;-57
2023/06/28 09:16:51;;;;;;;;;;;;;;;23.16;43.08;101573.66;4131508;28;19925;-56
2023/06/28 09:18:52;;;;;;;;;;;;;;;23.19;42.82;101580.66;4130787;28;20433;-56
2023/06/28 09:20:54;;;;;;;;;;;;;;;23.20;42.94;101585.91;4131557;28;19926;-57
2023/06/28 09:22:57;;;;;;;;;;;;;;;23.22;43.00;101580.41;4131754;28;20406;-56
2023/06/28 09:25:02;;;;;;;;;;;;;;;23.36;44.95;101582.06;4127289;28;19930;-55
2023/06/28 09:27:04;;;;;;;;;;;;;;;23.49;44.16;101573.91;4122794;28;19932;-58
2023/06/28 09:29:10;;;;;;;;;;;;;;;23.60;44.78;101579.31;4124558;28;19981;-58
2023/06/28 09:31:17;;;;;;;;;;;;;;;23.68;44.22;101566.16;4119969;28;19993;-57
2023/06/28 09:33:19;;;;;;;;;;;;;;;23.69;43.60;101572.38;4126390;28;19926;-54
2023/06/28 09:35:21;;;;;;;;;;;;;;;23.71;43.55;101571.28;4127264;28;19930;-54
2023/06/28 09:37:23;;;;;;;;;;;;;;;23.76;43.09;101571.75;4124897;28;20064;-58
2023/06/28 09:39:25;;;;;;;;;;;;;;;23.80;42.82;101575.06;4130550;28;19986;-56
2023/06/28 09:41:36;;;;;;;;;;;;;;;23.85;43.57;101575.56;4131554;28;20306;-55
2023/06/28 09:43:37;;;;;;;;;;;;;;;23.90;42.83;101567.13;4131226;28;20028;-51
2023/06/28 09:45:39;;;;;;;;;;;;;;;23.96;42.79;101563.16;4123203;28;19926;-55
2023/06/28 09:47:43;;;;;;;;;;;;;;;24.00;42.54;101557.41;4131567;28;19937;-57
2023/06/28 09:49:55;;;;;;;;;;;;;;;24.05;42.47;101552.53;4130224;28;19988;-51
2023/06/28 09:52:04;;;;;;;;;;;;;;;24.14;42.90;101555.47;4129124;28;20024;-52
2023/06/28 09:54:05;;;;;;;;;;;;;;;24.20;42.69;101545.06;4130591;28;19926;-49
2023/06/28 09:56:07;;;;;;;;;;;;;;;24.25;43.29;101536.63;4129827;28;19926;-52
2023/06/28 09:58:12;;;;;;;;;;;;;;;24.30;42.03;101536.25;4131349;28;19933;-54
2023/06/28 10:00:16;;;;;;;;;;;;;;;24.28;41.74;101539.06;4130487;28;19926;-56
2023/06/28 10:02:20;;;;;;;;;;;;;;;24.29;41.70;101532.72;4124507;28;19926;-57
2023/06/28 10:04:22;;;;;;;;;;;;;;;24.31;41.75;101530.75;4114853;28;19926;-57
2023/06/28 10:06:25;;;;;;;;;;;;;;;24.35;41.53;101539.41;4115312;28;19926;-57
2023/06/28 10:08:27;;;;;;;;;;;;;;;24.36;41.45;101531.25;4114378;28;19926;-56
2023/06/28 10:10:29;;;;;;;;;;;;;;;24.35;41.67;101521.47;4115062;28;19930;-56
2023/06/28 10:12:31;;;;;;;;;;;;;;;24.38;41.94;101525.72;4115003;28;19937;-57
2023/06/28 10:14:36;;;;;;;;;;;;;;;24.40;41.84;101521.09;4114839;28;20296;-56
2023/06/28 10:16:37;;;;;;;;;;;;;;;24.43;41.42;101525.38;4114800;28;19926;-56
2023/06/28 10:18:41;;;;;;;;;;;;;;;24.43;41.45;101520.00;4114280;28;19938;-56
2023/06/28 10:20:43;;;;;;;;;;;;;;;24.45;41.57;101529.63;4115109;28;20311;-54
2023/06/28 10:22:45;;;;;;;;;;;;;;;24.46;41.43;101522.41;4114808;28;19961;-57
2023/06/28 10:24:47;;;;;;;;;;;;;;;24.41;41.42;101522.78;4115189;28;19988;-56
2023/06/28 10:26:49;;;;;;;;;;;;;;;24.37;41.60;101515.97;4113807;28;19933;-57